sensor_id;sensor_type;location;lat;lon;timestamp;temperature;humidity
70734;DHT22;58320;48.804;9.252;2022-09-03T00:01:42;16.90;55.80
70734;DHT22;58320;48.804;9.252;2022-09-03T00:04:18;16.90;56.00
70734;DHT22;58320;48.804;9.252;2022-09-03T00:07:29;16.90;56.10
70734;DHT22;58320;48.804;9.252;2022-09-03T00:10:04;16.90;56.10
70734;DHT22;58320;48.804;9.252;2022-09-03T00:13:04;16.90;56.10
70734;DHT22;58320;48.804;9.252;2022-09-03T00:15:32;16.90;56.20
70734;DHT22;58320;48.804;9.252;2022-09-03T00:18:13;16.90;56.10
70734;DHT22;58320;48.804;9.252;2022-09-03T00:20:57;16.90;56.10
70734;DHT22;58320;48.804;9.252;2022-09-03T00:23:34;16.90;56.00
70734;DHT22;58320;48.804;9.252;2022-09-03T00:32:25;17.00;56.10
70734;DHT22;58320;48.804;9.252;2022-09-03T00:35:01;17.00;56.20
70734;DHT22;58320;48.804;9.252;2022-09-03T00:37:29;17.00;56.20
70734;DHT22;58320;48.804;9.252;2022-09-03T00:39:55;17.00;56.30
70734;DHT22;58320;48.804;9.252;2022-09-03T00:42:53;17.00;56.50
70734;DHT22;58320;48.804;9.252;2022-09-03T00:45:47;17.00;56.90
70734;DHT22;58320;48.804;9.252;2022-09-03T00:48:29;17.10;56.70
70734;DHT22;58320;48.804;9.252;2022-09-03T00:56:38;17.10;57.20
70734;DHT22;58320;48.804;9.252;2022-09-03T00:59:25;17.00;57.30
70734;DHT22;58320;48.804;9.252;2022-09-03T01:02:17;17.00;57.30
70734;DHT22;58320;48.804;9.252;2022-09-03T01:05:54;17.00;57.50
70734;DHT22;58320;48.804;9.252;2022-09-03T01:16:54;16.90;59.20
70734;DHT22;58320;48.804;9.252;2022-09-03T01:26:09;16.80;60.30
70734;DHT22;58320;48.804;9.252;2022-09-03T01:37:26;16.80;60.70
70734;DHT22;58320;48.804;9.252;2022-09-03T01:45:58;16.80;60.20
70734;DHT22;58320;48.804;9.252;2022-09-03T01:48:41;16.90;60.30
70734;DHT22;58320;48.804;9.252;2022-09-03T01:51:20;16.90;60.20
70734;DHT22;58320;48.804;9.252;2022-09-03T02:02:25;16.90;60.10
70734;DHT22;58320;48.804;9.252;2022-09-03T02:07:29;17.00;59.90
70734;DHT22;58320;48.804;9.252;2022-09-03T02:09:59;17.00;59.90
70734;DHT22;58320;48.804;9.252;2022-09-03T02:12:30;17.00;59.80
70734;DHT22;58320;48.804;9.252;2022-09-03T02:15:03;17.00;59.70
70734;DHT22;58320;48.804;9.252;2022-09-03T02:17:32;17.10;59.40
70734;DHT22;58320;48.804;9.252;2022-09-03T02:20:04;17.10;59.30
70734;DHT22;58320;48.804;9.252;2022-09-03T02:22:34;17.10;59.50
70734;DHT22;58320;48.804;9.252;2022-09-03T02:25:00;17.10;59.70
70734;DHT22;58320;48.804;9.252;2022-09-03T02:27:26;17.10;60.10
70734;DHT22;58320;48.804;9.252;2022-09-03T02:29:52;17.10;60.20
70734;DHT22;58320;48.804;9.252;2022-09-03T02:32:18;17.10;60.60
70734;DHT22;58320;48.804;9.252;2022-09-03T02:34:44;17.10;60.60
70734;DHT22;58320;48.804;9.252;2022-09-03T02:37:12;17.00;60.50
70734;DHT22;58320;48.804;9.252;2022-09-03T02:39:39;17.00;60.40
70734;DHT22;58320;48.804;9.252;2022-09-03T02:42:06;17.00;60.40
70734;DHT22;58320;48.804;9.252;2022-09-03T02:44:34;16.90;60.40
70734;DHT22;58320;48.804;9.252;2022-09-03T02:47:05;16.90;60.30
70734;DHT22;58320;48.804;9.252;2022-09-03T02:49:32;16.80;60.00
70734;DHT22;58320;48.804;9.252;2022-09-03T02:52:00;16.70;60.10
70734;DHT22;58320;48.804;9.252;2022-09-03T02:54:34;16.60;60.40
70734;DHT22;58320;48.804;9.252;2022-09-03T02:57:05;16.50;60.60
70734;DHT22;58320;48.804;9.252;2022-09-03T02:59:32;16.40;60.70
70734;DHT22;58320;48.804;9.252;2022-09-03T03:01:58;16.40;60.90
70734;DHT22;58320;48.804;9.252;2022-09-03T03:04:24;16.40;61.30
70734;DHT22;58320;48.804;9.252;2022-09-03T03:06:51;16.40;61.50
70734;DHT22;58320;48.804;9.252;2022-09-03T03:09:17;16.30;62.70
70734;DHT22;58320;48.804;9.252;2022-09-03T03:11:43;16.20;63.10
70734;DHT22;58320;48.804;9.252;2022-09-03T03:14:09;16.20;63.30
70734;DHT22;58320;48.804;9.252;2022-09-03T03:16:35;16.10;63.50
70734;DHT22;58320;48.804;9.252;2022-09-03T03:19:01;16.10;63.80
70734;DHT22;58320;48.804;9.252;2022-09-03T03:21:27;16.10;63.90
70734;DHT22;58320;48.804;9.252;2022-09-03T03:23:53;16.10;63.80
70734;DHT22;58320;48.804;9.252;2022-09-03T03:26:20;16.10;63.60
70734;DHT22;58320;48.804;9.252;2022-09-03T03:28:48;16.10;63.60
70734;DHT22;58320;48.804;9.252;2022-09-03T03:31:19;16.10;63.40
70734;DHT22;58320;48.804;9.252;2022-09-03T03:33:51;16.10;63.00
70734;DHT22;58320;48.804;9.252;2022-09-03T03:36:18;16.20;62.60
70734;DHT22;58320;48.804;9.252;2022-09-03T03:38:44;16.20;62.40
70734;DHT22;58320;48.804;9.252;2022-09-03T03:41:16;16.20;62.50
70734;DHT22;58320;48.804;9.252;2022-09-03T03:43:43;16.30;62.60
70734;DHT22;58320;48.804;9.252;2022-09-03T03:46:10;16.20;62.90
70734;DHT22;58320;48.804;9.252;2022-09-03T03:48:37;16.20;63.10
70734;DHT22;58320;48.804;9.252;2022-09-03T03:51:05;16.20;63.40
70734;DHT22;58320;48.804;9.252;2022-09-03T03:53:36;16.20;63.60
70734;DHT22;58320;48.804;9.252;2022-09-03T03:56:05;16.20;63.80
70734;DHT22;58320;48.804;9.252;2022-09-03T03:58:33;16.20;63.90
70734;DHT22;58320;48.804;9.252;2022-09-03T04:01:07;16.20;64.00
70734;DHT22;58320;48.804;9.252;2022-09-03T04:03:34;16.20;64.20
70734;DHT22;58320;48.804;9.252;2022-09-03T04:06:01;16.20;64.10
70734;DHT22;58320;48.804;9.252;2022-09-03T04:08:29;16.20;64.00
70734;DHT22;58320;48.804;9.252;2022-09-03T04:11:00;16.20;64.00
70734;DHT22;58320;48.804;9.252;2022-09-03T04:13:30;16.20;64.20
70734;DHT22;58320;48.804;9.252;2022-09-03T04:16:04;16.30;64.50
70734;DHT22;58320;48.804;9.252;2022-09-03T04:18:32;16.20;64.70
70734;DHT22;58320;48.804;9.252;2022-09-03T04:21:07;16.20;64.60
70734;DHT22;58320;48.804;9.252;2022-09-03T04:23:39;16.20;64.50
70734;DHT22;58320;48.804;9.252;2022-09-03T04:26:08;16.20;64.60
70734;DHT22;58320;48.804;9.252;2022-09-03T04:28:36;16.20;64.50
70734;DHT22;58320;48.804;9.252;2022-09-03T04:31:07;16.30;64.40
70734;DHT22;58320;48.804;9.252;2022-09-03T04:33:35;16.30;64.80
70734;DHT22;58320;48.804;9.252;2022-09-03T04:36:03;16.30;64.90
70734;DHT22;58320;48.804;9.252;2022-09-03T04:38:35;16.30;64.90
70734;DHT22;58320;48.804;9.252;2022-09-03T04:41:02;16.30;65.00
70734;DHT22;58320;48.804;9.252;2022-09-03T04:43:29;16.20;65.20
70734;DHT22;58320;48.804;9.252;2022-09-03T04:46:04;16.20;65.50
70734;DHT22;58320;48.804;9.252;2022-09-03T04:48:32;16.10;65.80
70734;DHT22;58320;48.804;9.252;2022-09-03T04:51:08;16.10;65.80
70734;DHT22;58320;48.804;9.252;2022-09-03T04:53:37;16.00;66.00
70734;DHT22;58320;48.804;9.252;2022-09-03T04:56:16;16.00;66.20
70734;DHT22;58320;48.804;9.252;2022-09-03T04:58:42;16.00;66.40
70734;DHT22;58320;48.804;9.252;2022-09-03T05:01:20;15.90;66.30
70734;DHT22;58320;48.804;9.252;2022-09-03T05:03:47;15.90;66.20
70734;DHT22;58320;48.804;9.252;2022-09-03T05:06:14;15.90;66.20
70734;DHT22;58320;48.804;9.252;2022-09-03T05:08:42;15.90;66.20
70734;DHT22;58320;48.804;9.252;2022-09-03T05:11:10;16.00;66.50
70734;DHT22;58320;48.804;9.252;2022-09-03T05:13:36;16.10;66.60
70734;DHT22;58320;48.804;9.252;2022-09-03T05:16:04;16.20;66.70
70734;DHT22;58320;48.804;9.252;2022-09-03T05:18:31;16.30;66.50
70734;DHT22;58320;48.804;9.252;2022-09-03T05:21:10;16.40;65.40
70734;DHT22;58320;48.804;9.252;2022-09-03T05:23:39;16.40;65.00
70734;DHT22;58320;48.804;9.252;2022-09-03T05:26:09;16.50;64.80
70734;DHT22;58320;48.804;9.252;2022-09-03T05:28:38;16.50;64.50
70734;DHT22;58320;48.804;9.252;2022-09-03T05:31:13;16.50;64.30
70734;DHT22;58320;48.804;9.252;2022-09-03T05:33:51;16.60;64.10
70734;DHT22;58320;48.804;9.252;2022-09-03T05:36:20;16.70;64.10
70734;DHT22;58320;48.804;9.252;2022-09-03T05:38:47;16.80;64.30
70734;DHT22;58320;48.804;9.252;2022-09-03T05:41:15;16.90;64.00
70734;DHT22;58320;48.804;9.252;2022-09-03T05:43:42;17.00;63.60
70734;DHT22;58320;48.804;9.252;2022-09-03T05:46:13;17.00;63.40
70734;DHT22;58320;48.804;9.252;2022-09-03T05:48:42;17.00;64.00
70734;DHT22;58320;48.804;9.252;2022-09-03T05:51:16;17.00;64.30
70734;DHT22;58320;48.804;9.252;2022-09-03T05:53:45;17.10;64.00
70734;DHT22;58320;48.804;9.252;2022-09-03T05:56:17;17.10;63.90
70734;DHT22;58320;48.804;9.252;2022-09-03T05:58:46;17.10;63.70
70734;DHT22;58320;48.804;9.252;2022-09-03T06:01:15;17.10;63.80
70734;DHT22;58320;48.804;9.252;2022-09-03T06:03:44;17.20;63.50
70734;DHT22;58320;48.804;9.252;2022-09-03T06:06:12;17.30;63.60
70734;DHT22;58320;48.804;9.252;2022-09-03T06:08:38;17.40;63.10
70734;DHT22;58320;48.804;9.252;2022-09-03T06:11:06;17.50;62.80
70734;DHT22;58320;48.804;9.252;2022-09-03T06:13:33;17.50;62.80
70734;DHT22;58320;48.804;9.252;2022-09-03T06:16:02;17.60;62.40
70734;DHT22;58320;48.804;9.252;2022-09-03T06:18:29;17.60;61.80
70734;DHT22;58320;48.804;9.252;2022-09-03T06:21:00;17.60;62.10
70734;DHT22;58320;48.804;9.252;2022-09-03T06:23:28;17.50;62.50
70734;DHT22;58320;48.804;9.252;2022-09-03T06:28:32;17.50;62.60
70734;DHT22;58320;48.804;9.252;2022-09-03T06:31:00;17.60;62.80
70734;DHT22;58320;48.804;9.252;2022-09-03T06:33:30;17.70;63.10
70734;DHT22;58320;48.804;9.252;2022-09-03T06:35:58;17.80;62.50
70734;DHT22;58320;48.804;9.252;2022-09-03T06:38:26;17.90;62.00
70734;DHT22;58320;48.804;9.252;2022-09-03T06:40:58;18.00;61.50
70734;DHT22;58320;48.804;9.252;2022-09-03T06:43:30;18.10;61.60
70734;DHT22;58320;48.804;9.252;2022-09-03T06:46:18;18.20;61.40
70734;DHT22;58320;48.804;9.252;2022-09-03T06:48:46;18.20;61.10
70734;DHT22;58320;48.804;9.252;2022-09-03T06:51:14;18.30;61.50
70734;DHT22;58320;48.804;9.252;2022-09-03T06:53:50;18.30;61.30
70734;DHT22;58320;48.804;9.252;2022-09-03T06:56:21;18.30;61.30
70734;DHT22;58320;48.804;9.252;2022-09-03T06:58:55;18.30;61.40
70734;DHT22;58320;48.804;9.252;2022-09-03T07:01:28;18.20;61.60
70734;DHT22;58320;48.804;9.252;2022-09-03T07:03:57;18.30;61.80
70734;DHT22;58320;48.804;9.252;2022-09-03T07:06:27;18.30;60.70
70734;DHT22;58320;48.804;9.252;2022-09-03T07:08:57;18.30;61.20
70734;DHT22;58320;48.804;9.252;2022-09-03T07:11:27;18.50;61.10
70734;DHT22;58320;48.804;9.252;2022-09-03T07:13:56;18.60;60.60
70734;DHT22;58320;48.804;9.252;2022-09-03T07:16:28;18.60;60.30
70734;DHT22;58320;48.804;9.252;2022-09-03T07:18:54;18.70;60.20
70734;DHT22;58320;48.804;9.252;2022-09-03T07:21:23;18.80;60.10
70734;DHT22;58320;48.804;9.252;2022-09-03T07:23:52;18.90;60.90
70734;DHT22;58320;48.804;9.252;2022-09-03T07:26:23;19.00;59.60
70734;DHT22;58320;48.804;9.252;2022-09-03T07:28:51;19.10;59.70
70734;DHT22;58320;48.804;9.252;2022-09-03T07:31:39;19.10;59.60
70734;DHT22;58320;48.804;9.252;2022-09-03T07:34:07;19.40;59.70
70734;DHT22;58320;48.804;9.252;2022-09-03T07:39:09;19.60;58.50
70734;DHT22;58320;48.804;9.252;2022-09-03T07:41:36;19.70;58.10
70734;DHT22;58320;48.804;9.252;2022-09-03T07:44:02;19.80;58.10
70734;DHT22;58320;48.804;9.252;2022-09-03T07:46:36;19.90;58.10
70734;DHT22;58320;48.804;9.252;2022-09-03T07:49:03;20.10;58.20
70734;DHT22;58320;48.804;9.252;2022-09-03T07:51:33;20.40;57.30
70734;DHT22;58320;48.804;9.252;2022-09-03T07:54:02;20.70;57.20
70734;DHT22;58320;48.804;9.252;2022-09-03T07:56:31;20.80;56.70
70734;DHT22;58320;48.804;9.252;2022-09-03T07:58:59;20.80;57.50
70734;DHT22;58320;48.804;9.252;2022-09-03T08:01:27;21.00;55.90
70734;DHT22;58320;48.804;9.252;2022-09-03T08:03:55;21.30;55.40
70734;DHT22;58320;48.804;9.252;2022-09-03T08:06:24;21.70;55.40
70734;DHT22;58320;48.804;9.252;2022-09-03T08:08:59;22.10;54.80
70734;DHT22;58320;48.804;9.252;2022-09-03T08:11:28;22.60;53.30
70734;DHT22;58320;48.804;9.252;2022-09-03T08:14:00;22.40;53.20
70734;DHT22;58320;48.804;9.252;2022-09-03T08:16:35;22.40;53.30
70734;DHT22;58320;48.804;9.252;2022-09-03T08:19:02;22.40;53.50
70734;DHT22;58320;48.804;9.252;2022-09-03T08:21:29;22.30;54.10
70734;DHT22;58320;48.804;9.252;2022-09-03T08:23:56;22.30;54.70
70734;DHT22;58320;48.804;9.252;2022-09-03T08:26:33;22.40;54.30
70734;DHT22;58320;48.804;9.252;2022-09-03T08:29:02;22.70;54.00
70734;DHT22;58320;48.804;9.252;2022-09-03T08:31:29;22.80;53.20
70734;DHT22;58320;48.804;9.252;2022-09-03T08:33:56;22.60;52.80
70734;DHT22;58320;48.804;9.252;2022-09-03T08:38:51;23.00;53.00
70734;DHT22;58320;48.804;9.252;2022-09-03T08:41:24;23.30;52.00
70734;DHT22;58320;48.804;9.252;2022-09-03T08:47:10;24.40;49.60
70734;DHT22;58320;48.804;9.252;2022-09-03T08:49:59;24.50;49.20
70734;DHT22;58320;48.804;9.252;2022-09-03T08:52:47;24.30;49.50
70734;DHT22;58320;48.804;9.252;2022-09-03T08:56:03;24.20;49.80
70734;DHT22;58320;48.804;9.252;2022-09-03T08:58:37;24.20;49.80
70734;DHT22;58320;48.804;9.252;2022-09-03T09:01:19;24.20;50.10
70734;DHT22;58320;48.804;9.252;2022-09-03T09:07:56;24.10;50.00
70734;DHT22;58320;48.804;9.252;2022-09-03T09:10:01;23.80;50.20
70734;DHT22;58320;48.804;9.252;2022-09-03T09:13:13;23.60;51.10
70734;DHT22;58320;48.804;9.252;2022-09-03T09:16:17;23.50;51.00
70734;DHT22;58320;48.804;9.252;2022-09-03T09:21:46;23.70;51.20
70734;DHT22;58320;48.804;9.252;2022-09-03T09:24:21;23.80;51.10
70734;DHT22;58320;48.804;9.252;2022-09-03T09:26:58;23.90;51.50
70734;DHT22;58320;48.804;9.252;2022-09-03T09:29:26;23.90;50.70
70734;DHT22;58320;48.804;9.252;2022-09-03T09:31:56;23.80;50.50
70734;DHT22;58320;48.804;9.252;2022-09-03T09:34:22;23.40;51.20
70734;DHT22;58320;48.804;9.252;2022-09-03T09:36:51;23.10;52.00
70734;DHT22;58320;48.804;9.252;2022-09-03T09:39:18;22.90;51.80
70734;DHT22;58320;48.804;9.252;2022-09-03T09:42:05;22.70;52.70
70734;DHT22;58320;48.804;9.252;2022-09-03T09:44:34;22.70;53.40
70734;DHT22;58320;48.804;9.252;2022-09-03T09:47:07;22.90;53.80
70734;DHT22;58320;48.804;9.252;2022-09-03T09:49:49;23.40;52.40
70734;DHT22;58320;48.804;9.252;2022-09-03T09:52:17;23.90;50.60
70734;DHT22;58320;48.804;9.252;2022-09-03T09:54:44;24.30;49.20
70734;DHT22;58320;48.804;9.252;2022-09-03T09:57:21;24.50;49.10
70734;DHT22;58320;48.804;9.252;2022-09-03T09:59:48;24.80;48.50
70734;DHT22;58320;48.804;9.252;2022-09-03T10:02:25;25.10;47.70
70734;DHT22;58320;48.804;9.252;2022-09-03T10:04:54;25.40;47.20
70734;DHT22;58320;48.804;9.252;2022-09-03T10:07:36;25.40;47.10
70734;DHT22;58320;48.804;9.252;2022-09-03T10:10:04;25.30;46.90
70734;DHT22;58320;48.804;9.252;2022-09-03T10:12:52;25.10;47.20
70734;DHT22;58320;48.804;9.252;2022-09-03T10:18:43;24.80;48.10
70734;DHT22;58320;48.804;9.252;2022-09-03T10:21:12;24.70;48.50
70734;DHT22;58320;48.804;9.252;2022-09-03T10:23:59;24.80;48.30
70734;DHT22;58320;48.804;9.252;2022-09-03T10:26:40;24.70;48.30
70734;DHT22;58320;48.804;9.252;2022-09-03T10:29:14;24.50;48.20
70734;DHT22;58320;48.804;9.252;2022-09-03T10:38:37;24.70;47.40
70734;DHT22;58320;48.804;9.252;2022-09-03T10:46:30;24.50;48.00
70734;DHT22;58320;48.804;9.252;2022-09-03T10:49:29;24.40;48.70
70734;DHT22;58320;48.804;9.252;2022-09-03T10:52:11;24.30;49.00
70734;DHT22;58320;48.804;9.252;2022-09-03T10:55:06;24.40;49.00
70734;DHT22;58320;48.804;9.252;2022-09-03T10:57:48;24.70;48.20
70734;DHT22;58320;48.804;9.252;2022-09-03T11:00:20;25.10;47.60
70734;DHT22;58320;48.804;9.252;2022-09-03T11:08:40;25.80;46.20
70734;DHT22;58320;48.804;9.252;2022-09-03T11:11:19;26.10;46.00
70734;DHT22;58320;48.804;9.252;2022-09-03T11:14:06;26.10;45.60
70734;DHT22;58320;48.804;9.252;2022-09-03T11:16:45;26.20;45.60
70734;DHT22;58320;48.804;9.252;2022-09-03T11:19:22;26.40;45.90
70734;DHT22;58320;48.804;9.252;2022-09-03T11:21:52;26.40;46.40
70734;DHT22;58320;48.804;9.252;2022-09-03T11:24:24;26.20;45.80
70734;DHT22;58320;48.804;9.252;2022-09-03T11:27:19;25.90;46.30
70734;DHT22;58320;48.804;9.252;2022-09-03T11:38:07;26.00;46.60
70734;DHT22;58320;48.804;9.252;2022-09-03T11:48:51;25.70;47.60
70734;DHT22;58320;48.804;9.252;2022-09-03T11:53:54;25.20;48.70
70734;DHT22;58320;48.804;9.252;2022-09-03T11:56:22;25.10;49.00
70734;DHT22;58320;48.804;9.252;2022-09-03T12:01:55;24.70;50.10
70734;DHT22;58320;48.804;9.252;2022-09-03T12:04:51;24.30;51.20
70734;DHT22;58320;48.804;9.252;2022-09-03T12:22:14;22.60;55.70
70734;DHT22;58320;48.804;9.252;2022-09-03T12:24:42;22.40;56.60
70734;DHT22;58320;48.804;9.252;2022-09-03T12:27:16;22.30;56.50
70734;DHT22;58320;48.804;9.252;2022-09-03T12:32:33;22.10;57.90
70734;DHT22;58320;48.804;9.252;2022-09-03T12:35:22;22.00;59.20
70734;DHT22;58320;48.804;9.252;2022-09-03T12:37:51;21.80;59.70
70734;DHT22;58320;48.804;9.252;2022-09-03T12:40:18;21.60;60.50
70734;DHT22;58320;48.804;9.252;2022-09-03T12:42:49;21.50;61.20
70734;DHT22;58320;48.804;9.252;2022-09-03T12:45:19;21.20;62.90
70734;DHT22;58320;48.804;9.252;2022-09-03T12:47:46;20.80;64.80
70734;DHT22;58320;48.804;9.252;2022-09-03T12:50:14;20.50;66.30
70734;DHT22;58320;48.804;9.252;2022-09-03T12:52:58;20.30;66.80
70734;DHT22;58320;48.804;9.252;2022-09-03T12:55:45;20.00;68.30
70734;DHT22;58320;48.804;9.252;2022-09-03T13:01:11;19.40;70.10
70734;DHT22;58320;48.804;9.252;2022-09-03T13:06:17;19.10;74.00
70734;DHT22;58320;48.804;9.252;2022-09-03T13:08:46;18.90;77.00
70734;DHT22;58320;48.804;9.252;2022-09-03T13:11:20;18.80;78.30
70734;DHT22;58320;48.804;9.252;2022-09-03T13:14:03;18.60;81.30
70734;DHT22;58320;48.804;9.252;2022-09-03T13:16:56;18.30;81.60
70734;DHT22;58320;48.804;9.252;2022-09-03T13:31:49;18.10;82.80
70734;DHT22;58320;48.804;9.252;2022-09-03T13:36:51;18.30;82.00
70734;DHT22;58320;48.804;9.252;2022-09-03T13:39:42;18.50;82.80
70734;DHT22;58320;48.804;9.252;2022-09-03T13:42:40;19.10;80.70
70734;DHT22;58320;48.804;9.252;2022-09-03T13:48:42;19.60;78.40
70734;DHT22;58320;48.804;9.252;2022-09-03T13:51:36;19.60;75.40
70734;DHT22;58320;48.804;9.252;2022-09-03T13:54:17;20.50;73.90
70734;DHT22;58320;48.804;9.252;2022-09-03T13:56:58;21.50;69.70
70734;DHT22;58320;48.804;9.252;2022-09-03T13:59:32;22.20;65.70
70734;DHT22;58320;48.804;9.252;2022-09-03T14:07:51;24.00;58.90
70734;DHT22;58320;48.804;9.252;2022-09-03T14:10:38;23.40;59.10
70734;DHT22;58320;48.804;9.252;2022-09-03T14:22:55;21.00;69.20
70734;DHT22;58320;48.804;9.252;2022-09-03T14:25:27;21.10;69.40
70734;DHT22;58320;48.804;9.252;2022-09-03T14:27:55;21.00;69.20
70734;DHT22;58320;48.804;9.252;2022-09-03T14:31:00;21.70;66.90
70734;DHT22;58320;48.804;9.252;2022-09-03T14:36:28;22.60;64.20
70734;DHT22;58320;48.804;9.252;2022-09-03T14:39:26;22.20;65.00
70734;DHT22;58320;48.804;9.252;2022-09-03T14:53:50;21.30;70.00
70734;DHT22;58320;48.804;9.252;2022-09-03T15:11:29;20.50;70.00
70734;DHT22;58320;48.804;9.252;2022-09-03T15:16:59;20.40;68.90
70734;DHT22;58320;48.804;9.252;2022-09-03T15:20:15;20.50;68.50
70734;DHT22;58320;48.804;9.252;2022-09-03T15:25:41;21.00;67.80
70734;DHT22;58320;48.804;9.252;2022-09-03T15:28:32;21.50;66.80
70734;DHT22;58320;48.804;9.252;2022-09-03T15:37:18;23.70;60.20
70734;DHT22;58320;48.804;9.252;2022-09-03T15:40:14;23.70;59.50
70734;DHT22;58320;48.804;9.252;2022-09-03T15:43:07;23.40;59.50
70734;DHT22;58320;48.804;9.252;2022-09-03T15:45:39;23.40;60.50
70734;DHT22;58320;48.804;9.252;2022-09-03T15:51:44;25.30;55.00
70734;DHT22;58320;48.804;9.252;2022-09-03T15:54:20;26.50;52.30
70734;DHT22;58320;48.804;9.252;2022-09-03T15:57:24;27.40;50.60
70734;DHT22;58320;48.804;9.252;2022-09-03T16:00:20;28.00;48.80
70734;DHT22;58320;48.804;9.252;2022-09-03T16:05:56;28.10;48.70
70734;DHT22;58320;48.804;9.252;2022-09-03T16:08:52;27.80;49.00
70734;DHT22;58320;48.804;9.252;2022-09-03T16:20:07;25.60;53.30
70734;DHT22;58320;48.804;9.252;2022-09-03T16:23:20;25.50;54.10
70734;DHT22;58320;48.804;9.252;2022-09-03T16:25:55;25.50;54.70
70734;DHT22;58320;48.804;9.252;2022-09-03T16:43:24;23.10;60.00
70734;DHT22;58320;48.804;9.252;2022-09-03T16:49:12;22.90;60.80
70734;DHT22;58320;48.804;9.252;2022-09-03T16:52:23;22.90;61.40
70734;DHT22;58320;48.804;9.252;2022-09-03T16:55:21;22.80;61.30
70734;DHT22;58320;48.804;9.252;2022-09-03T16:57:53;22.50;62.00
70734;DHT22;58320;48.804;9.252;2022-09-03T17:00:27;22.50;62.40
70734;DHT22;58320;48.804;9.252;2022-09-03T17:34:52;21.70;64.50
70734;DHT22;58320;48.804;9.252;2022-09-03T17:50:43;20.70;68.20
70734;DHT22;58320;48.804;9.252;2022-09-03T17:52:53;20.50;68.80
70734;DHT22;58320;48.804;9.252;2022-09-03T17:55:38;20.40;69.40
70734;DHT22;58320;48.804;9.252;2022-09-03T18:00:57;20.10;70.50
70734;DHT22;58320;48.804;9.252;2022-09-03T18:06:48;19.80;71.50
70734;DHT22;58320;48.804;9.252;2022-09-03T18:11:50;19.50;71.90
70734;DHT22;58320;48.804;9.252;2022-09-03T18:14:46;19.50;72.60
70734;DHT22;58320;48.804;9.252;2022-09-03T18:20:12;19.30;73.30
70734;DHT22;58320;48.804;9.252;2022-09-03T18:23:20;19.10;73.40
70734;DHT22;58320;48.804;9.252;2022-09-03T18:26:15;19.10;74.20
70734;DHT22;58320;48.804;9.252;2022-09-03T18:29:11;19.00;74.40
70734;DHT22;58320;48.804;9.252;2022-09-03T18:31:59;18.90;74.30
70734;DHT22;58320;48.804;9.252;2022-09-03T18:34:45;18.80;75.40
70734;DHT22;58320;48.804;9.252;2022-09-03T18:37:30;18.70;75.80
70734;DHT22;58320;48.804;9.252;2022-09-03T18:40:20;18.60;76.30
70734;DHT22;58320;48.804;9.252;2022-09-03T18:46:28;18.60;76.70
70734;DHT22;58320;48.804;9.252;2022-09-03T18:53:07;18.50;77.80
70734;DHT22;58320;48.804;9.252;2022-09-03T19:02:32;18.40;77.70
70734;DHT22;58320;48.804;9.252;2022-09-03T19:09:08;18.40;78.10
70734;DHT22;58320;48.804;9.252;2022-09-03T19:15:56;18.40;78.40
70734;DHT22;58320;48.804;9.252;2022-09-03T19:21:53;18.40;79.00
70734;DHT22;58320;48.804;9.252;2022-09-03T19:24:39;18.40;78.90
70734;DHT22;58320;48.804;9.252;2022-09-03T19:36:44;18.30;79.50
70734;DHT22;58320;48.804;9.252;2022-09-03T19:43:15;18.20;80.50
70734;DHT22;58320;48.804;9.252;2022-09-03T19:55:32;18.00;81.80
70734;DHT22;58320;48.804;9.252;2022-09-03T19:58:22;18.00;82.10
70734;DHT22;58320;48.804;9.252;2022-09-03T20:01:09;17.90;82.40
70734;DHT22;58320;48.804;9.252;2022-09-03T20:03:55;17.90;82.80
70734;DHT22;58320;48.804;9.252;2022-09-03T20:06:43;17.80;83.00
70734;DHT22;58320;48.804;9.252;2022-09-03T20:09:34;17.60;83.50
70734;DHT22;58320;48.804;9.252;2022-09-03T20:12:23;17.50;83.80
70734;DHT22;58320;48.804;9.252;2022-09-03T20:14:50;17.40;84.20
70734;DHT22;58320;48.804;9.252;2022-09-03T20:20:23;17.20;85.30
70734;DHT22;58320;48.804;9.252;2022-09-03T20:34:48;17.40;88.20
70734;DHT22;58320;48.804;9.252;2022-09-03T20:38:00;17.50;88.20
70734;DHT22;58320;48.804;9.252;2022-09-03T20:40:28;17.50;88.40
70734;DHT22;58320;48.804;9.252;2022-09-03T20:51:26;17.30;90.60
70734;DHT22;58320;48.804;9.252;2022-09-03T20:54:16;17.20;90.80
70734;DHT22;58320;48.804;9.252;2022-09-03T21:05:33;17.20;90.60
70734;DHT22;58320;48.804;9.252;2022-09-03T21:11:22;17.20;90.10
70734;DHT22;58320;48.804;9.252;2022-09-03T21:14:38;17.20;89.90
70734;DHT22;58320;48.804;9.252;2022-09-03T21:25:14;17.10;89.70
70734;DHT22;58320;48.804;9.252;2022-09-03T21:28:14;17.10;89.80
70734;DHT22;58320;48.804;9.252;2022-09-03T21:30:47;17.10;89.80
70734;DHT22;58320;48.804;9.252;2022-09-03T21:33:32;17.10;89.80
70734;DHT22;58320;48.804;9.252;2022-09-03T21:36:15;17.20;89.80
70734;DHT22;58320;48.804;9.252;2022-09-03T21:38:57;17.20;90.30
70734;DHT22;58320;48.804;9.252;2022-09-03T21:41:46;17.30;90.30
70734;DHT22;58320;48.804;9.252;2022-09-03T21:44:36;17.30;89.80
70734;DHT22;58320;48.804;9.252;2022-09-03T21:47:17;17.30;90.00
70734;DHT22;58320;48.804;9.252;2022-09-03T21:50:04;17.30;90.90
70734;DHT22;58320;48.804;9.252;2022-09-03T21:52:54;17.40;90.40
70734;DHT22;58320;48.804;9.252;2022-09-03T21:58:28;17.40;90.20
70734;DHT22;58320;48.804;9.252;2022-09-03T22:02:04;17.50;90.30
70734;DHT22;58320;48.804;9.252;2022-09-03T22:04:10;17.50;90.00
70734;DHT22;58320;48.804;9.252;2022-09-03T22:11:54;17.40;91.20
70734;DHT22;58320;48.804;9.252;2022-09-03T22:14:27;17.40;91.30
70734;DHT22;58320;48.804;9.252;2022-09-03T22:17:10;17.40;91.30
70734;DHT22;58320;48.804;9.252;2022-09-03T22:19:41;17.40;91.20
70734;DHT22;58320;48.804;9.252;2022-09-03T22:22:45;17.40;91.20
70734;DHT22;58320;48.804;9.252;2022-09-03T22:28:47;17.40;93.10
70734;DHT22;58320;48.804;9.252;2022-09-03T22:31:51;17.30;94.60
70734;DHT22;58320;48.804;9.252;2022-09-03T22:40:24;17.00;97.10
70734;DHT22;58320;48.804;9.252;2022-09-03T22:51:16;16.90;98.90
70734;DHT22;58320;48.804;9.252;2022-09-03T22:54:07;16.90;99.40
70734;DHT22;58320;48.804;9.252;2022-09-03T22:56:44;16.90;99.60
70734;DHT22;58320;48.804;9.252;2022-09-03T22:59:35;16.90;99.80
70734;DHT22;58320;48.804;9.252;2022-09-03T23:02:19;16.90;99.70
70734;DHT22;58320;48.804;9.252;2022-09-03T23:05:02;16.90;99.90
70734;DHT22;58320;48.804;9.252;2022-09-03T23:10:16;16.90;99.60
70734;DHT22;58320;48.804;9.252;2022-09-03T23:12:49;16.90;99.20
70734;DHT22;58320;48.804;9.252;2022-09-03T23:15:22;16.80;99.00
70734;DHT22;58320;48.804;9.252;2022-09-03T23:18:11;16.80;99.00
70734;DHT22;58320;48.804;9.252;2022-09-03T23:20:49;16.80;99.00
70734;DHT22;58320;48.804;9.252;2022-09-03T23:23:22;16.70;99.00
70734;DHT22;58320;48.804;9.252;2022-09-03T23:29:17;16.70;99.40
70734;DHT22;58320;48.804;9.252;2022-09-03T23:31:51;16.60;99.20